San Pedro, Belize

2:23 PM CST on March 29, 2015 (GMT -0600)
Mosquito Coast | | Change Station
CLOSE
Current Station
Personal Weather Station
Location: San Pedro Town, Ambergris Caye
Elevation: 40 ft
Nearby Weather Stations

Elev 40 ft 17.89 °N, 87.98 °W | Updated 12 minutes ago

Mostly Cloudy
Mostly Cloudy
78.0 °F
Feels Like 80 °F
N
13.0
Wind Variable Wind from NE
Gusts 26.0 mph

Today
High -- | Low -- °F
--% Chance of Precip.
Yesterday
High -- | Low -- °F
Precip. -- in
5:48 AM 6:04 PM
Waxing Gibbous, 74% visible
Pressure 30.04 in
Visibility 6.2 miles
Clouds Scattered Clouds 1800 ft
Mostly Cloudy 4500 ft
Heat Index 80 °F
Dew Point 72 °F
Humidity 83%
Rainfall 0.17 in
Snow Depth Not available.
UV 7 out of 12
Pollen Not available.
Air Quality Not available.
Flu Activity Not available.
METAR MZBZ 292000Z 16003KT 9999 SCT018TCU BKN045 27/24 A3004 Q1017 NOSIG RMK TCU-NE

More Conditions Fewer Conditions

Pressure 30.04 in
Visibility 6.2 miles
Clouds Scattered Clouds 1800 ft
Mostly Cloudy 4500 ft
Heat Index 80 °F
Dew Point 72 °F
Humidity 83%
Rainfall 0.17 in
Snow Depth Not available.
UV 7 out of 12
Pollen Not available.
Air Quality Not available.
Flu Activity Not available.
METAR MZBZ 292000Z 16003KT 9999 SCT018TCU BKN045 27/24 A3004 Q1017 NOSIG RMK TCU-NE

More Conditions Fewer Conditions

10-Day Weather Forecast

Almanac

Astronomy

Mar. 29, 2015 Rise Set
Actual Time
Civil Twilight
Nautical Twilight
Astronomical Twilight
Moon
Length of Visible Light
Length of Day
Tomorrow will be .
, % of the Moon is Illuminated

Today's Extremes

Country Highs Country Lows

Community

WunderPhotos

Upload Photos

1,809,344 photos uploaded!

WunderBlogs® & News

Nearby

Air Quality

  Air Quality AQ Index Pollutant
Not available.

Snow Depth

Station Depth Elevation

Earthquake Activity

City Distance Mag. Time & Date
Minimum magnitude displayed is 2.5.

Coastal Water Temperatures

Place Temperature

Stations

Nearby Weather Stations

Station Location Temp. Windchill Dew Point Humidity Wind Precip. Elev Updated Type